Time;durP1;ratioP1;P1;durP2;ratioP2;P2;SDS_P1;SDS_P2;PMS_P1;PMS_P2;Temp;Humidity;BMP_temperature;BMP_pressure;BME280_temperature;BME280_humidity;BME280_pressure;Samples;Min_cycle;Max_cycle;Signal;HPM_P1;HPM_P2
2024/03/24 00:00:35;;;;;;;4.72;4.28;;;5.10;99.90;;;;;;5003828;28;20076;-71
2024/03/24 00:03:01;;;;;;;5.97;3.75;;;5.10;99.90;;;;;;4995664;28;20038;-70
2024/03/24 00:05:27;;;;;;;3.40;3.10;;;5.20;99.90;;;;;;5012081;28;20053;-71
2024/03/24 00:07:53;;;;;;;5.13;4.60;;;5.10;99.90;;;;;;5011206;28;20487;-70
2024/03/24 00:10:19;;;;;;;3.35;3.03;;;5.20;99.90;;;;;;5012036;28;20046;-70
2024/03/24 00:12:46;;;;;;;5.97;4.68;;;5.10;99.90;;;;;;5011604;28;20053;-71
2024/03/24 00:15:12;;;;;;;3.30;2.95;;;5.20;99.90;;;;;;4979525;28;20054;-70
2024/03/24 00:17:38;;;;;;;5.65;3.92;;;5.20;99.90;;;;;;4995265;28;20068;-70
2024/03/24 00:20:06;;;;;;;9.23;4.03;;;5.30;99.90;;;;;;5011651;28;20030;-71
2024/03/24 00:22:32;;;;;;;5.38;4.18;;;5.30;99.90;;;;;;4995001;28;20395;-71
2024/03/24 00:24:58;;;;;;;7.63;5.13;;;5.30;99.90;;;;;;5011500;28;20038;-70
2024/03/24 00:27:24;;;;;;;5.05;4.65;;;5.30;99.90;;;;;;5000709;28;20526;-70
2024/03/24 00:29:50;;;;;;;5.35;4.47;;;5.40;99.90;;;;;;4943175;28;20140;-71
2024/03/24 00:32:16;;;;;;;4.38;3.85;;;5.40;99.90;;;;;;4975707;28;20050;-70
2024/03/24 00:34:42;;;;;;;3.08;2.75;;;5.50;99.90;;;;;;4976049;28;20447;-70
2024/03/24 00:37:08;;;;;;;3.83;3.45;;;5.40;99.90;;;;;;4991940;28;20096;-70
2024/03/24 00:39:34;;;;;;;6.97;5.03;;;5.40;99.90;;;;;;4992084;28;20042;-70
2024/03/24 00:42:00;;;;;;;5.15;4.75;;;5.40;99.90;;;;;;4975640;28;20042;-71
2024/03/24 00:44:26;;;;;;;8.38;7.20;;;5.30;99.90;;;;;;4975949;28;20047;-71
2024/03/24 00:46:52;;;;;;;11.02;6.78;;;5.20;99.90;;;;;;4975549;28;20058;-72
2024/03/24 00:49:18;;;;;;;8.50;7.90;;;5.30;99.90;;;;;;4991911;28;20554;-71
2024/03/24 00:51:44;;;;;;;8.88;6.15;;;5.10;99.90;;;;;;4975641;28;20053;-71
2024/03/24 00:54:10;;;;;;;7.78;7.03;;;5.10;99.90;;;;;;4991759;28;20057;-71
2024/03/24 00:56:36;;;;;;;6.75;6.18;;;5.10;99.90;;;;;;4991833;28;20518;-71
2024/03/24 00:59:02;;;;;;;12.40;7.38;;;5.10;99.90;;;;;;4975599;28;20034;-71
2024/03/24 01:01:28;;;;;;;9.85;6.75;;;5.10;99.90;;;;;;4975743;28;20039;-71
2024/03/24 01:03:54;;;;;;;5.95;5.43;;;5.10;99.90;;;;;;4991622;28;20046;-71
2024/03/24 01:06:20;;;;;;;9.00;6.07;;;5.10;99.90;;;;;;4991799;28;20058;-71
2024/03/24 01:08:47;;;;;;;5.95;5.05;;;5.10;99.90;;;;;;4975754;28;20046;-71
2024/03/24 01:11:13;;;;;;;8.93;7.22;;;5.20;99.90;;;;;;4991772;28;20515;-71
2024/03/24 01:13:39;;;;;;;6.43;5.82;;;5.10;99.90;;;;;;4991677;28;20046;-72
2024/03/24 01:16:06;;;;;;;7.05;6.22;;;5.10;99.90;;;;;;4991396;28;20046;-71
2024/03/24 01:18:32;;;;;;;7.40;6.70;;;5.10;99.90;;;;;;4975493;28;20499;-71
2024/03/24 01:20:58;;;;;;;13.48;9.05;;;5.10;99.90;;;;;;4991448;28;20052;-71
2024/03/24 01:23:24;;;;;;;8.93;6.22;;;5.10;99.90;;;;;;4991643;28;20045;-71
2024/03/24 01:25:50;;;;;;;9.23;8.32;;;5.10;99.90;;;;;;4959024;28;20042;-71
2024/03/24 01:28:16;;;;;;;9.55;8.10;;;5.10;99.90;;;;;;4975557;28;20035;-71
2024/03/24 01:30:43;;;;;;;8.15;7.32;;;5.20;99.90;;;;;;4991504;28;20066;-71
2024/03/24 01:33:09;;;;;;;12.93;7.40;;;5.20;99.90;;;;;;4975078;28;20054;-71
2024/03/24 01:35:35;;;;;;;11.10;9.80;;;5.20;99.90;;;;;;4959173;28;20101;-72
2024/03/24 01:38:01;;;;;;;9.45;6.10;;;5.20;99.90;;;;;;4993137;28;20042;-71
2024/03/24 01:40:27;;;;;;;8.63;7.72;;;5.30;99.90;;;;;;4979311;28;20066;-71
2024/03/24 01:42:53;;;;;;;10.25;9.18;;;5.30;99.90;;;;;;4995213;28;20052;-71
2024/03/24 01:45:19;;;;;;;10.30;8.00;;;5.30;99.90;;;;;;4979427;28;20054;-71
2024/03/24 01:47:45;;;;;;;9.63;8.77;;;5.30;99.90;;;;;;4995256;28;20259;-72
2024/03/24 01:50:13;;;;;;;6.15;5.55;;;5.30;99.90;;;;;;4962786;28;20895;-72
2024/03/24 01:52:43;;;;;;;8.95;7.40;;;5.30;99.90;;;;;;4995158;28;20050;-72
2024/03/24 01:55:09;;;;;;;11.90;8.82;;;5.40;99.90;;;;;;5011386;28;20035;-72
2024/03/24 01:57:35;;;;;;;9.43;8.02;;;5.40;99.90;;;;;;4978803;28;20492;-71
2024/03/24 02:00:02;;;;;;;9.00;8.32;;;5.30;99.90;;;;;;4962507;28;20507;-71
2024/03/24 02:02:38;;;;;;;7.47;6.80;;;5.20;99.90;;;;;;4980192;28;20058;-72
2024/03/24 02:05:04;;;;;;;9.77;8.93;;;5.20;99.90;;;;;;4978663;28;20138;-71
2024/03/24 02:07:31;;;;;;;8.43;7.70;;;5.20;99.90;;;;;;4994908;28;20053;-71
2024/03/24 02:09:57;;;;;;;4.38;3.90;;;5.20;99.90;;;;;;4978535;28;20450;-71
2024/03/24 02:12:25;;;;;;;4.60;3.83;;;5.30;99.90;;;;;;4962805;28;20446;-71
2024/03/24 02:14:51;;;;;;;3.50;3.20;;;5.10;99.90;;;;;;4995022;28;20039;-71
2024/03/24 02:17:17;;;;;;;5.82;5.32;;;5.00;99.90;;;;;;4978542;28;20042;-73
2024/03/24 02:19:43;;;;;;;4.30;3.88;;;5.00;99.90;;;;;;4994916;28;20556;-71
2024/03/24 02:22:09;;;;;;;5.25;3.95;;;5.00;99.90;;;;;;4994357;28;20219;-72
2024/03/24 02:24:35;;;;;;;4.22;3.83;;;4.90;99.90;;;;;;4978480;28;20431;-71
2024/03/24 02:27:01;;;;;;;4.70;4.35;;;4.90;99.90;;;;;;4978255;28;20042;-71
2024/03/24 02:29:27;;;;;;;4.20;3.83;;;4.90;99.90;;;;;;4978454;28;20113;-72
2024/03/24 02:31:53;;;;;;;3.67;3.38;;;4.90;99.90;;;;;;4994129;28;20085;-72
2024/03/24 02:34:21;;;;;;;8.27;4.68;;;4.90;99.90;;;;;;4978223;28;20089;-72
2024/03/24 02:36:47;;;;;;;4.53;4.13;;;4.90;99.90;;;;;;4977959;28;20046;-71
2024/03/24 02:39:13;;;;;;;6.78;5.18;;;4.90;99.90;;;;;;4993951;28;20049;-71
2024/03/24 02:41:40;;;;;;;3.92;3.33;;;4.90;99.90;;;;;;4978089;28;20052;-71
2024/03/24 02:44:06;;;;;;;5.10;3.67;;;5.00;99.90;;;;;;4993990;28;20030;-71
2024/03/24 02:46:32;;;;;;;4.32;3.28;;;4.90;99.90;;;;;;4978148;28;20049;-71
2024/03/24 02:48:58;;;;;;;4.57;4.22;;;4.90;99.90;;;;;;4976892;28;20038;-71
2024/03/24 02:51:24;;;;;;;4.13;3.53;;;4.90;99.90;;;;;;4977627;28;20058;-71
2024/03/24 02:53:50;;;;;;;5.22;2.58;;;4.90;99.90;;;;;;4994067;28;20381;-71
2024/03/24 02:56:16;;;;;;;4.65;4.35;;;4.90;99.90;;;;;;4993797;28;20038;-72
2024/03/24 02:58:42;;;;;;;6.72;4.38;;;4.80;99.90;;;;;;4977921;28;20047;-71
2024/03/24 03:01:08;;;;;;;2.92;2.17;;;4.80;99.90;;;;;;4977493;28;20068;-71
2024/03/24 03:03:34;;;;;;;3.65;3.00;;;4.80;99.90;;;;;;4977609;28;20050;-72
2024/03/24 03:06:00;;;;;;;3.45;3.13;;;4.80;99.90;;;;;;4977713;28;20043;-72
2024/03/24 03:08:26;;;;;;;3.22;2.40;;;4.70;99.90;;;;;;4993546;28;20488;-72
2024/03/24 03:10:52;;;;;;;3.53;2.53;;;4.80;99.90;;;;;;4977573;28;20041;-72
2024/03/24 03:13:18;;;;;;;2.40;2.30;;;4.70;99.90;;;;;;4993520;28;20097;-72
2024/03/24 03:15:44;;;;;;;3.28;2.97;;;4.80;99.90;;;;;;4993558;28;20488;-72
2024/03/24 03:18:10;;;;;;;4.25;3.88;;;4.70;99.90;;;;;;5009578;28;20042;-72
2024/03/24 03:20:36;;;;;;;2.78;2.58;;;4.80;99.90;;;;;;4977320;28;20050;-71
2024/03/24 03:23:03;;;;;;;3.00;2.80;;;4.80;99.90;;;;;;4993530;28;20042;-71
2024/03/24 03:25:29;;;;;;;2.95;2.45;;;4.70;99.90;;;;;;4977325;28;20042;-72
2024/03/24 03:27:55;;;;;;;5.03;2.10;;;4.70;99.90;;;;;;4961161;28;20420;-71
2024/03/24 03:30:22;;;;;;;2.30;1.55;;;4.70;99.90;;;;;;4976762;28;20385;-71
2024/03/24 03:32:48;;;;;;;2.90;2.70;;;4.70;99.90;;;;;;4945233;28;20070;-71
2024/03/24 03:35:14;;;;;;;2.38;2.17;;;4.70;99.90;;;;;;4993288;28;20100;-71
2024/03/24 03:37:40;;;;;;;2.70;2.30;;;4.80;99.90;;;;;;4993126;28;20066;-71
2024/03/24 03:40:06;;;;;;;2.60;2.45;;;4.80;99.90;;;;;;4993151;28;20047;-70
2024/03/24 03:42:32;;;;;;;3.00;2.10;;;4.80;99.90;;;;;;4976982;28;20045;-71
2024/03/24 03:44:58;;;;;;;4.85;3.30;;;4.80;99.90;;;;;;4976919;28;20038;-71
2024/03/24 03:47:26;;;;;;;2.80;2.60;;;4.80;99.90;;;;;;4992753;28;20129;-71
2024/03/24 03:49:53;;;;;;;3.53;3.05;;;4.80;99.90;;;;;;4977167;28;20101;-71
2024/03/24 03:52:25;;;;;;;2.47;1.75;;;4.80;99.90;;;;;;4976535;28;20263;-71
2024/03/24 03:54:53;;;;;;;4.35;3.70;;;4.80;99.90;;;;;;4993070;28;20042;-70
2024/03/24 03:57:19;;;;;;;3.85;3.58;;;4.80;99.90;;;;;;4960597;28;20039;-70
2024/03/24 03:59:45;;;;;;;2.35;2.15;;;4.80;99.90;;;;;;4976542;28;20034;-71
2024/03/24 04:02:11;;;;;;;2.05;1.73;;;4.90;99.90;;;;;;4986954;28;20426;-71
2024/03/24 04:04:38;;;;;;;2.80;2.50;;;4.90;99.90;;;;;;4989515;28;20081;-71
2024/03/24 04:07:04;;;;;;;4.70;4.40;;;4.90;99.90;;;;;;4995924;28;20042;-71
2024/03/24 04:09:30;;;;;;;2.38;2.17;;;5.00;99.90;;;;;;4969877;28;20400;-71
2024/03/24 04:11:56;;;;;;;4.75;2.28;;;4.90;99.90;;;;;;4992529;28;20054;-71
2024/03/24 04:14:23;;;;;;;3.65;3.30;;;4.90;99.90;;;;;;4976101;28;20057;-71
2024/03/24 04:16:50;;;;;;;3.22;2.22;;;5.00;99.90;;;;;;4992339;28;20411;-71
2024/03/24 04:19:17;;;;;;;1.75;1.40;;;5.00;99.90;;;;;;4960083;28;20400;-71
2024/03/24 04:21:43;;;;;;;4.65;3.03;;;5.00;99.90;;;;;;4976253;28;20514;-71
2024/03/24 04:24:09;;;;;;;3.08;2.78;;;5.00;99.90;;;;;;4960310;28;20096;-71
2024/03/24 04:26:35;;;;;;;3.60;3.30;;;5.00;99.90;;;;;;4992359;28;20058;-70
2024/03/24 04:29:01;;;;;;;3.33;3.03;;;5.00;99.90;;;;;;4975839;28;20054;-71
2024/03/24 04:31:27;;;;;;;4.38;3.90;;;5.00;99.90;;;;;;4991782;28;20053;-71
2024/03/24 04:33:53;;;;;;;3.08;2.83;;;5.00;99.90;;;;;;4975915;28;20050;-71
2024/03/24 04:36:19;;;;;;;5.70;3.42;;;5.00;99.90;;;;;;4975720;28;20038;-71
2024/03/24 04:38:45;;;;;;;4.60;4.05;;;5.00;99.90;;;;;;4992064;28;20035;-71
2024/03/24 04:41:11;;;;;;;4.75;2.47;;;5.00;99.90;;;;;;4959747;28;20145;-71
2024/03/24 04:43:37;;;;;;;2.67;2.42;;;5.10;99.90;;;;;;4991827;28;20039;-71
2024/03/24 04:46:03;;;;;;;2.58;2.42;;;5.10;99.90;;;;;;4959763;28;20517;-71
2024/03/24 04:48:29;;;;;;;3.53;2.28;;;5.20;99.90;;;;;;4975655;28;20381;-71
2024/03/24 04:50:55;;;;;;;5.45;4.95;;;5.20;99.90;;;;;;4976004;28;20042;-71
2024/03/24 04:53:24;;;;;;;4.03;2.88;;;5.20;99.90;;;;;;4991950;28;20038;-71
2024/03/24 04:55:50;;;;;;;4.15;2.33;;;5.30;99.90;;;;;;4991927;28;20039;-71
2024/03/24 04:58:16;;;;;;;2.28;2.05;;;5.30;99.90;;;;;;4975637;28;20058;-71
2024/03/24 05:00:44;;;;;;;1.80;1.70;;;5.40;99.90;;;;;;4959806;28;20038;-71
2024/03/24 05:03:10;;;;;;;3.17;2.35;;;5.40;99.90;;;;;;4975694;28;20061;-71
2024/03/24 05:05:38;;;;;;;5.38;1.83;;;5.40;99.90;;;;;;4975323;28;20046;-71
2024/03/24 05:08:04;;;;;;;3.92;2.25;;;5.50;99.90;;;;;;4991787;28;20129;-71
2024/03/24 05:10:30;;;;;;;4.05;1.65;;;5.50;99.90;;;;;;4991588;28;20042;-71
2024/03/24 05:12:56;;;;;;;8.88;2.38;;;5.50;99.90;;;;;;4977546;28;20388;-71
2024/03/24 05:15:22;;;;;;;2.45;2.25;;;5.50;99.90;;;;;;4995655;28;20049;-71
2024/03/24 05:17:52;;;;;;;2.67;2.50;;;5.50;99.90;;;;;;4979981;28;20048;-71
2024/03/24 05:20:18;;;;;;;8.07;5.72;;;5.50;99.90;;;;;;4963406;28;20047;-71
2024/03/24 05:22:44;;;;;;;3.40;2.42;;;5.50;99.90;;;;;;4979445;28;20141;-71
2024/03/24 05:25:10;;;;;;;1.95;1.85;;;5.50;99.90;;;;;;4995829;28;20047;-71
2024/03/24 05:27:36;;;;;;;5.40;2.83;;;5.50;99.90;;;;;;4979128;28;20125;-71
2024/03/24 05:30:02;;;;;;;2.90;2.65;;;5.50;99.90;;;;;;4963172;28;20054;-71
2024/03/24 05:32:28;;;;;;;2.40;2.20;;;5.40;99.90;;;;;;4995100;28;20104;-71
2024/03/24 05:34:54;;;;;;;4.80;3.55;;;5.30;99.90;;;;;;4995435;28;20089;-71
2024/03/24 05:37:20;;;;;;;1.95;1.67;;;5.20;99.90;;;;;;4995294;28;20046;-71
2024/03/24 05:39:48;;;;;;;2.80;2.55;;;5.20;99.90;;;;;;4979218;28;20038;-71
2024/03/24 05:42:14;;;;;;;3.03;2.65;;;5.10;99.90;;;;;;4979020;28;20057;-71
2024/03/24 05:44:40;;;;;;;2.80;2.10;;;5.10;99.90;;;;;;4995124;28;20423;-71
2024/03/24 05:47:06;;;;;;;2.47;2.35;;;5.10;99.90;;;;;;4995238;28;20093;-71
2024/03/24 05:49:32;;;;;;;3.00;1.88;;;5.10;99.90;;;;;;4978738;28;20487;-71
2024/03/24 05:51:58;;;;;;;2.90;2.47;;;5.20;99.90;;;;;;4995358;28;20097;-71
2024/03/24 05:54:24;;;;;;;9.00;1.80;;;5.20;99.90;;;;;;4994873;28;20046;-71
2024/03/24 05:56:50;;;;;;;4.93;2.65;;;5.30;99.90;;;;;;4994952;28;20038;-71
2024/03/24 05:59:17;;;;;;;3.15;2.20;;;5.30;99.90;;;;;;4962633;28;20046;-71
2024/03/24 06:01:43;;;;;;;4.20;2.38;;;5.30;99.90;;;;;;5001379;28;20039;-72
2024/03/24 06:04:09;;;;;;;5.90;3.35;;;5.30;99.90;;;;;;4997866;28;20545;-71
2024/03/24 06:06:35;;;;;;;3.72;1.73;;;5.20;99.90;;;;;;4981496;28;20053;-70
2024/03/24 06:09:02;;;;;;;2.90;1.63;;;5.30;99.90;;;;;;4997676;28;20511;-71
2024/03/24 06:11:28;;;;;;;3.72;3.42;;;5.20;99.90;;;;;;4998104;28;20038;-71
2024/03/24 06:13:53;;;;;;;2.80;1.52;;;5.20;99.90;;;;;;5014355;28;20068;-71
2024/03/24 06:16:19;;;;;;;3.40;2.97;;;5.20;99.90;;;;;;4981475;28;20050;-71
2024/03/24 06:18:45;;;;;;;4.45;3.17;;;5.30;99.90;;;;;;4997842;28;20042;-71
2024/03/24 06:21:11;;;;;;;2.60;2.05;;;5.40;99.90;;;;;;5014074;28;20038;-71
2024/03/24 06:23:37;;;;;;;2.40;1.42;;;5.50;99.90;;;;;;4997597;28;20369;-71
2024/03/24 06:26:03;;;;;;;5.15;2.47;;;5.50;99.90;;;;;;4997863;28;20124;-71
2024/03/24 06:28:29;;;;;;;4.40;2.75;;;5.50;99.90;;;;;;4997536;28;20092;-71
2024/03/24 06:30:55;;;;;;;4.93;2.45;;;5.50;99.90;;;;;;4997741;28;20034;-71
2024/03/24 06:33:22;;;;;;;3.47;2.03;;;5.60;99.90;;;;;;4997558;28;20491;-72
2024/03/24 06:35:48;;;;;;;6.63;2.35;;;5.70;99.90;;;;;;4981055;28;20057;-71
2024/03/24 06:38:14;;;;;;;3.40;1.65;;;5.70;99.90;;;;;;5013563;28;20034;-72
2024/03/24 06:40:41;;;;;;;3.17;1.75;;;6.00;99.90;;;;;;4997248;28;20392;-71
2024/03/24 06:43:12;;;;;;;1.67;1.58;;;6.40;99.90;;;;;;4997372;28;20084;-71
2024/03/24 06:45:40;;;;;;;3.22;2.00;;;6.70;99.90;;;;;;4981828;28;20037;-72
2024/03/24 06:48:07;;;;;;;3.45;1.15;;;6.90;99.90;;;;;;4981366;28;20054;-72
2024/03/24 06:50:33;;;;;;;3.13;1.45;;;7.20;99.90;;;;;;4997021;28;20057;-71
2024/03/24 06:52:59;;;;;;;1.30;1.20;;;7.30;99.90;;;;;;5013707;28;20049;-71
2024/03/24 06:55:26;;;;;;;7.82;2.45;;;7.40;99.90;;;;;;4997290;28;20045;-72
2024/03/24 06:57:55;;;;;;;1.30;0.75;;;7.50;99.90;;;;;;4997239;28;20403;-71
2024/03/24 07:00:21;;;;;;;3.03;2.25;;;7.50;99.90;;;;;;5013808;28;20030;-71
2024/03/24 07:02:48;;;;;;;3.88;2.38;;;7.70;99.90;;;;;;5013278;28;20042;-72
2024/03/24 07:05:15;;;;;;;3.08;1.88;;;7.70;99.90;;;;;;5013364;28;20038;-72
2024/03/24 07:07:42;;;;;;;4.25;1.90;;;7.70;99.90;;;;;;5013012;28;20077;-71
2024/03/24 07:10:08;;;;;;;5.80;2.90;;;7.60;99.90;;;;;;5013203;28;20500;-72
2024/03/24 07:12:35;;;;;;;5.10;2.17;;;7.40;99.90;;;;;;4996627;28;20103;-72
2024/03/24 07:15:03;;;;;;;6.38;1.40;;;7.30;99.90;;;;;;5013385;28;20057;-71
2024/03/24 07:17:29;;;;;;;2.67;1.65;;;7.00;99.90;;;;;;4996860;28;20037;-72
2024/03/24 07:19:55;;;;;;;2.88;1.23;;;6.90;99.90;;;;;;4996498;28;20037;-71
2024/03/24 07:22:21;;;;;;;5.15;1.70;;;6.80;99.90;;;;;;4996610;28;20081;-71
2024/03/24 07:24:47;;;;;;;2.67;1.50;;;6.80;99.90;;;;;;4996556;28;20041;-71
2024/03/24 07:27:13;;;;;;;2.60;1.60;;;6.70;99.90;;;;;;5012851;28;20053;-71
2024/03/24 07:29:40;;;;;;;1.70;1.58;;;6.60;99.90;;;;;;4996717;28;20042;-71
2024/03/24 07:32:07;;;;;;;3.85;1.70;;;6.50;99.90;;;;;;4996630;28;20053;-71
2024/03/24 07:34:34;;;;;;;4.75;1.50;;;6.60;99.90;;;;;;5012553;28;20046;-71
2024/03/24 07:37:01;;;;;;;2.58;2.38;;;6.70;99.90;;;;;;4979823;28;20042;-71
2024/03/24 07:39:28;;;;;;;8.50;2.42;;;6.80;99.90;;;;;;4996412;28;20042;-72
2024/03/24 07:41:54;;;;;;;2.00;1.48;;;6.90;99.90;;;;;;4980423;28;20484;-71
2024/03/24 07:44:20;;;;;;;4.10;1.77;;;7.10;99.90;;;;;;5012936;28;20050;-72
2024/03/24 07:46:47;;;;;;;3.50;1.80;;;6.90;99.90;;;;;;5012273;28;20042;-72
2024/03/24 07:49:13;;;;;;;2.55;1.45;;;6.90;99.90;;;;;;5012469;28;20569;-72
2024/03/24 07:51:39;;;;;;;4.25;1.88;;;6.70;99.90;;;;;;4996030;28;20042;-72
2024/03/24 07:54:05;;;;;;;2.70;1.88;;;6.60;99.90;;;;;;4980059;28;20042;-72
2024/03/24 07:56:32;;;;;;;6.60;1.85;;;6.60;99.90;;;;;;4998838;28;20573;-73
2024/03/24 07:58:59;;;;;;;4.18;2.15;;;6.50;99.90;;;;;;5012002;28;20038;-71
2024/03/24 08:01:25;;;;;;;6.68;4.85;;;6.50;99.90;;;;;;4995708;28;20038;-72
2024/03/24 08:03:51;;;;;;;2.83;2.15;;;6.60;99.90;;;;;;4995319;28;20046;-72
2024/03/24 08:06:17;;;;;;;3.80;2.25;;;6.60;99.90;;;;;;4963603;28;20054;-71
2024/03/24 08:08:43;;;;;;;5.93;1.13;;;6.60;99.90;;;;;;5011905;28;20168;-71
2024/03/24 08:11:09;;;;;;;3.75;1.88;;;6.60;99.90;;;;;;5012163;28;20439;-72
2024/03/24 08:13:36;;;;;;;2.15;1.10;;;6.50;99.90;;;;;;5012227;28;20042;-71
2024/03/24 08:16:02;;;;;;;3.90;1.42;;;6.60;99.90;;;;;;4995438;28;20053;-71
2024/03/24 08:18:28;;;;;;;4.40;2.05;;;6.60;99.90;;;;;;4995555;28;20100;-71
2024/03/24 08:20:54;;;;;;;4.25;1.75;;;6.60;99.90;;;;;;5011854;28;20046;-71
2024/03/24 08:23:20;;;;;;;4.03;1.55;;;6.80;99.90;;;;;;4995673;28;20396;-72
2024/03/24 08:25:47;;;;;;;8.07;2.97;;;6.90;99.90;;;;;;5011638;28;20046;-72
2024/03/24 08:28:14;;;;;;;2.33;1.55;;;7.00;99.90;;;;;;5011869;28;20121;-71
2024/03/24 08:30:40;;;;;;;4.78;1.67;;;7.00;99.90;;;;;;4979368;28;20054;-71
2024/03/24 08:33:09;;;;;;;2.97;1.00;;;7.00;99.90;;;;;;4995441;28;20050;-71
2024/03/24 08:35:35;;;;;;;4.18;1.80;;;6.90;99.90;;;;;;5012038;28;20100;-71
2024/03/24 08:38:01;;;;;;;1.13;1.02;;;7.00;99.90;;;;;;4979029;28;20050;-72
2024/03/24 08:40:27;;;;;;;3.50;2.20;;;6.80;99.90;;;;;;4995379;28;20052;-72
2024/03/24 08:42:53;;;;;;;0.82;0.82;;;6.80;99.90;;;;;;5011300;28;20046;-71
2024/03/24 08:45:19;;;;;;;5.25;1.30;;;6.80;99.90;;;;;;5011343;28;20096;-71
2024/03/24 08:47:45;;;;;;;6.35;2.35;;;6.80;99.90;;;;;;5010729;28;20052;-70
2024/03/24 08:50:12;;;;;;;3.70;1.13;;;6.80;99.90;;;;;;4963177;28;20427;-70
2024/03/24 08:52:38;;;;;;;2.60;1.80;;;6.90;99.90;;;;;;4995566;28;20038;-71
2024/03/24 08:55:04;;;;;;;5.35;1.67;;;6.90;99.90;;;;;;4978884;28;20053;-71
2024/03/24 08:57:30;;;;;;;1.73;1.60;;;7.00;99.90;;;;;;4978860;28;20050;-71
2024/03/24 08:59:57;;;;;;;2.55;1.52;;;7.00;99.90;;;;;;5011445;28;20042;-71
2024/03/24 09:02:23;;;;;;;3.13;2.28;;;7.10;99.90;;;;;;5011522;28;20037;-70
2024/03/24 09:04:53;;;;;;;5.22;1.90;;;7.00;99.90;;;;;;4994903;28;20042;-71
2024/03/24 09:07:21;;;;;;;3.42;1.33;;;7.00;99.90;;;;;;4979258;28;20045;-71
2024/03/24 09:09:48;;;;;;;1.83;1.73;;;6.90;99.90;;;;;;5011332;28;20069;-71
2024/03/24 09:12:14;;;;;;;3.38;1.42;;;6.80;99.90;;;;;;5011225;28;20041;-71
2024/03/24 09:14:42;;;;;;;2.03;1.38;;;6.70;99.90;;;;;;4994878;28;20096;-71
2024/03/24 09:17:09;;;;;;;1.27;1.00;;;6.70;99.90;;;;;;5011027;28;20030;-71
2024/03/24 09:19:35;;;;;;;1.25;0.52;;;6.60;99.90;;;;;;5011168;28;20046;-71
2024/03/24 09:22:01;;;;;;;2.17;2.00;;;6.60;99.90;;;;;;4994729;28;20042;-71
2024/03/24 09:24:27;;;;;;;1.15;0.90;;;6.60;99.90;;;;;;4994761;28;20046;-71
2024/03/24 09:26:57;;;;;;;1.20;1.10;;;6.50;99.90;;;;;;4994728;28;20091;-71
2024/03/24 09:29:23;;;;;;;2.38;1.77;;;6.60;99.90;;;;;;4994829;28;20103;-71
2024/03/24 09:31:49;;;;;;;1.85;0.93;;;6.60;99.90;;;;;;5011162;28;20065;-71
2024/03/24 09:34:15;;;;;;;3.55;1.35;;;6.60;99.90;;;;;;5010959;28;20495;-72
2024/03/24 09:36:42;;;;;;;3.60;1.30;;;6.70;99.90;;;;;;4994656;28;20518;-73
2024/03/24 09:39:07;;;;;;;4.55;1.23;;;6.70;99.90;;;;;;4962499;28;20488;-71
2024/03/24 09:41:42;;;;;;;6.07;1.65;;;6.80;99.90;;;;;;5010961;28;20041;-71
2024/03/24 09:44:15;;;;;;;2.92;1.33;;;7.00;99.90;;;;;;5010816;28;20038;-70
2024/03/24 09:46:43;;;;;;;4.32;1.48;;;7.10;99.90;;;;;;5011099;28;20388;-71
2024/03/24 09:49:16;;;;;;;4.25;1.70;;;7.20;99.90;;;;;;4994637;28;20096;-71
2024/03/24 09:51:43;;;;;;;2.40;1.13;;;7.50;99.90;;;;;;5010968;28;20046;-71
2024/03/24 09:54:11;;;;;;;2.70;1.17;;;7.40;99.90;;;;;;5010577;28;20064;-70
2024/03/24 09:56:37;;;;;;;2.95;1.95;;;7.50;99.90;;;;;;5010803;28;20053;-71
2024/03/24 09:59:05;;;;;;;3.78;2.08;;;7.60;99.90;;;;;;4996321;28;20044;-71
2024/03/24 10:01:32;;;;;;;5.10;2.42;;;7.90;99.90;;;;;;5014610;28;20045;-71
2024/03/24 10:03:59;;;;;;;4.57;1.98;;;8.30;99.90;;;;;;4997985;28;20053;-71
2024/03/24 10:06:26;;;;;;;5.80;1.65;;;8.60;99.90;;;;;;5014620;28;20077;-70
2024/03/24 10:08:53;;;;;;;6.82;2.10;;;8.90;99.90;;;;;;5014460;28;20042;-71
2024/03/24 10:11:32;;;;;;;1.92;1.50;;;9.00;99.90;;;;;;5014258;28;20038;-71
2024/03/24 10:13:59;;;;;;;2.00;1.35;;;8.80;99.90;;;;;;5014257;28;20045;-71
2024/03/24 10:16:25;;;;;;;4.63;2.10;;;8.50;99.90;;;;;;5014540;28;20113;-71
2024/03/24 10:18:52;;;;;;;9.00;3.33;;;8.30;99.90;;;;;;5014333;28;20481;-71
2024/03/24 10:21:19;;;;;;;6.43;2.05;;;8.00;99.90;;;;;;5014092;28;20069;-71
2024/03/24 10:23:46;;;;;;;2.72;1.65;;;8.00;99.90;;;;;;5014230;28;20050;-71
2024/03/24 10:26:19;;;;;;;3.20;2.13;;;8.10;99.90;;;;;;4998082;28;20040;-71
2024/03/24 10:28:48;;;;;;;3.85;1.30;;;8.10;99.90;;;;;;4998094;28;20502;-71
2024/03/24 10:31:14;;;;;;;3.03;1.30;;;8.10;99.90;;;;;;4997269;28;20049;-72
2024/03/24 10:33:40;;;;;;;2.05;1.00;;;8.10;99.90;;;;;;5013958;28;20037;-71
2024/03/24 10:36:07;;;;;;;1.98;1.00;;;8.30;99.90;;;;;;5013708;28;20168;-71
2024/03/24 10:38:37;;;;;;;2.75;2.08;;;8.60;99.90;;;;;;5013792;28;20042;-71
2024/03/24 10:41:07;;;;;;;2.55;1.80;;;8.70;99.90;;;;;;5013521;28;20483;-72
2024/03/24 10:43:34;;;;;;;2.60;1.25;;;8.70;99.90;;;;;;5013713;28;20034;-71
2024/03/24 10:46:01;;;;;;;3.13;1.15;;;8.40;99.90;;;;;;4997300;28;20049;-70
2024/03/24 10:48:34;;;;;;;4.65;1.38;;;8.10;99.90;;;;;;5013674;28;20397;-71
2024/03/24 10:51:04;;;;;;;3.55;2.00;;;8.20;99.90;;;;;;5013645;28;20046;-71
2024/03/24 10:53:34;;;;;;;2.88;2.15;;;8.60;99.90;;;;;;5013651;28;20049;-71
2024/03/24 10:56:01;;;;;;;4.03;1.77;;;9.20;99.90;;;;;;4965868;28;20041;-72
2024/03/24 10:58:28;;;;;;;6.38;2.22;;;9.80;99.90;;;;;;5013407;28;20092;-71
2024/03/24 11:00:55;;;;;;;3.05;1.40;;;10.10;99.90;;;;;;5013347;28;20041;-71
2024/03/24 11:03:22;;;;;;;6.25;1.70;;;10.00;99.90;;;;;;5013103;28;20041;-71
2024/03/24 11:05:52;;;;;;;4.25;1.25;;;9.50;99.90;;;;;;4997054;28;20040;-72
2024/03/24 11:08:20;;;;;;;3.22;2.35;;;8.90;99.90;;;;;;5013129;28;20048;-72
2024/03/24 11:10:52;;;;;;;7.53;2.58;;;8.50;99.90;;;;;;4979831;28;20052;-71
2024/03/24 11:13:22;;;;;;;8.52;2.08;;;8.20;99.90;;;;;;5012953;28;20046;-71
2024/03/24 11:15:49;;;;;;;7.18;2.72;;;8.00;99.90;;;;;;4996954;28;20041;-71
2024/03/24 11:18:25;;;;;;;11.73;3.80;;;7.90;99.90;;;;;;5012983;28;20053;-71
2024/03/24 11:20:55;;;;;;;6.30;2.00;;;8.10;99.90;;;;;;5012958;28;20507;-71
2024/03/24 11:23:41;;;;;;;7.07;2.75;;;8.10;99.90;;;;;;4996437;28;20041;-71
2024/03/24 11:26:25;;;;;;;5.70;2.25;;;8.10;99.90;;;;;;5029252;28;20076;-72
2024/03/24 11:28:52;;;;;;;10.65;3.03;;;8.00;99.90;;;;;;5012997;28;20046;-72
2024/03/24 11:31:21;;;;;;;8.75;2.40;;;7.70;99.90;;;;;;5012543;28;20488;-72
2024/03/24 11:34:03;;;;;;;8.82;2.10;;;7.50;99.90;;;;;;5013200;28;20048;-72
2024/03/24 11:36:34;;;;;;;3.58;1.90;;;7.40;99.90;;;;;;5012598;28;20056;-72
2024/03/24 11:39:02;;;;;;;;;;;7.40;99.90;;;;;;5013337;28;20046;-72
2024/03/24 11:41:28;;;;;;;6.45;2.55;;;7.30;99.90;;;;;;5012606;28;19948;-72
2024/03/24 11:44:04;;;;;;;5.38;2.00;;;7.30;99.90;;;;;;5012679;28;20042;-71
2024/03/24 11:46:32;;;;;;;5.85;2.90;;;7.40;99.90;;;;;;5012294;28;20054;-71
2024/03/24 11:49:00;;;;;;;8.30;2.08;;;7.50;99.90;;;;;;5012502;28;20045;-71
2024/03/24 11:51:27;;;;;;;9.80;3.00;;;7.80;99.90;;;;;;5010106;28;20435;-71
2024/03/24 11:53:54;;;;;;;9.40;2.40;;;7.90;99.90;;;;;;4977611;28;20041;-72
2024/03/24 11:56:29;;;;;;;10.48;3.03;;;8.10;99.90;;;;;;5004283;28;20088;-72
2024/03/24 11:58:56;;;;;;;6.32;2.40;;;8.10;99.90;;;;;;4979624;28;20057;-72
2024/03/24 12:01:23;;;;;;;11.38;2.42;;;8.30;99.90;;;;;;5011523;28;20100;-71
2024/03/24 12:03:51;;;;;;;4.60;2.05;;;8.00;99.90;;;;;;5012229;28;20046;-72
2024/03/24 12:06:19;;;;;;;5.18;2.90;;;7.90;99.90;;;;;;5012059;28;20038;-72
2024/03/24 12:08:49;;;;;;;3.92;2.20;;;7.90;99.90;;;;;;5012313;28;20046;-72
2024/03/24 12:11:15;;;;;;;3.88;1.75;;;7.90;99.90;;;;;;5012070;28;20038;-72
2024/03/24 12:13:43;;;;;;;4.50;1.65;;;8.10;99.90;;;;;;5012056;28;20100;-73
2024/03/24 12:16:15;;;;;;;9.52;3.55;;;8.50;99.90;;;;;;5012149;28;20050;-72
2024/03/24 12:18:41;;;;;;;5.25;2.25;;;9.00;99.90;;;;;;5011975;28;20407;-72
2024/03/24 12:21:08;;;;;;;6.47;1.83;;;9.50;99.90;;;;;;5011824;28;20152;-72
2024/03/24 12:23:35;;;;;;;8.55;2.88;;;9.80;99.90;;;;;;4995514;28;20072;-72
2024/03/24 12:26:04;;;;;;;5.25;1.48;;;9.70;99.90;;;;;;5011946;28;20475;-71
2024/03/24 12:28:30;;;;;;;4.88;2.00;;;9.70;99.90;;;;;;5011486;28;20050;-72
2024/03/24 12:30:58;;;;;;;7.60;3.15;;;9.70;99.90;;;;;;5012081;28;20042;-71
2024/03/24 12:33:25;;;;;;;10.27;3.13;;;9.80;99.90;;;;;;5011603;28;20046;-72
2024/03/24 12:35:54;;;;;;;4.65;1.83;;;10.00;99.90;;;;;;4979564;28;20069;-71
2024/03/24 12:38:20;;;;;;;14.45;2.85;;;10.10;99.90;;;;;;5011727;28;20041;-72
2024/03/24 12:40:54;;;;;;;8.63;2.03;;;10.10;99.90;;;;;;5011745;28;20057;-72
2024/03/24 12:43:27;;;;;;;5.18;2.83;;;9.90;99.90;;;;;;4978781;28;20057;-73
2024/03/24 12:45:59;;;;;;;9.48;2.65;;;9.70;99.90;;;;;;5011730;28;20049;-73
2024/03/24 12:48:29;;;;;;;4.55;1.98;;;9.30;99.90;;;;;;5011434;28;20092;-73
2024/03/24 12:50:59;;;;;;;5.30;1.50;;;8.70;99.90;;;;;;5011569;28;20059;-73
2024/03/24 12:53:37;;;;;;;2.90;1.33;;;8.20;99.90;;;;;;5011244;28;20502;-73
2024/03/24 12:56:05;;;;;;;3.88;1.00;;;7.90;99.90;;;;;;5011754;28;20423;-73